Freeport, Michigan
Current Conditions -  °F | °C
As of 7:26 AM on Sunday 25 Jan 2015 (Local Time) from KGRR Reporting Station
Overcast Overcast  
Wind Chill: -9°   Ceiling: 3300
Heat Index: -3°   Visibility: 10mi
Dew Point: -7°   Wind: 15mph
Humidity: 72%   Direction: 70°ENE
Pressure: 29.81"   Gusts: NA
Location:  42.77°N, 85.31°W
Report Text: KGRR 251226Z 07013KT 10SM OVC033 M03/M07 A2981 RMK AO2 T10281072
Loading
Personal Weather Stations






























Interactive Weather Map New forecast layout! Learn more

10-Day Weather Forecast

Advertisements
Track Severe Weather on mobile